Station Historical Data
Daily Summary for March 12, 2017 Units:  English    Metric   Both
« Previous Day
Next Day »
Daily Weekly Monthly Yearly Custom
  High: Low: Average:
Temperature: 22.5 °F 11.9 °F 16.9 °F
Dew Point: 14.5 °F 4.7 °F 8.6 °F
Humidity: 86% 52% 70%
Wind Speed: 11.0mph 0.0mph 2.9mph
Wind Gust: 15.0mph - -
Wind- - South
Pressure: 30.50 in 30.37 in -
Precipitation: 0.00 in    
Historical Graphs
 
 
Tabular Data for March 12, 2017
Time Temperature Dew Point Pressure Wind Wind Speed Wind Gust Humidity Rainfall Rate (Hourly)
00:04 17.9 °F 14.4 °F 30.37 in WNW 1.0 mph 5.0 mph 86% 0.00 in
00:09 17.9 °F 14.4 °F 30.37 in WNW 1.0 mph 5.0 mph 86% 0.00 in
00:14 17.9 °F 14.4 °F 30.37 in WNW 1.0 mph 4.0 mph 86% 0.00 in
00:19 17.8 °F 14.3 °F 30.37 in NW 2.0 mph 4.0 mph 86% 0.00 in
00:24 17.7 °F 14.2 °F 30.37 in NW 1.0 mph 4.0 mph 86% 0.00 in
00:29 17.7 °F 14.2 °F 30.37 in NW 1.0 mph 4.0 mph 86% 0.00 in
00:34 17.7 °F 14.2 °F 30.37 in Calm   2.0 mph 86% 0.00 in
00:39 17.6 °F 14.1 °F 30.37 in NNW 1.0 mph 3.0 mph 86% 0.00 in
00:44 17.1 °F 13.6 °F 30.37 in North 2.0 mph 3.0 mph 86% 0.00 in
00:49 16.6 °F 13.1 °F 30.37 in NNE 2.0 mph 6.0 mph 86% 0.00 in
00:54 16.2 °F 12.7 °F 30.37 in NNE 1.0 mph 4.0 mph 86% 0.00 in
00:59 15.9 °F 12.5 °F 30.37 in NE 2.0 mph 4.0 mph 86% 0.00 in
01:05 15.7 °F 12.3 °F 30.37 in NE 2.0 mph 6.0 mph 86% 0.00 in
01:10 15.5 °F 12.1 °F 30.38 in NNE 2.0 mph 6.0 mph 86% 0.00 in
01:15 15.3 °F 11.9 °F 30.38 in NNE 2.0 mph 4.0 mph 86% 0.00 in
01:20 15.3 °F 11.9 °F 30.37 in NE 3.0 mph 4.0 mph 86% 0.00 in
01:25 15.1 °F 11.7 °F 30.37 in NE 2.0 mph 5.0 mph 86% 0.00 in
01:30 15.1 °F 11.7 °F 30.38 in NE 2.0 mph 4.0 mph 86% 0.00 in
01:35 15.0 °F 11.6 °F 30.38 in NE 2.0 mph 7.0 mph 86% 0.00 in
01:40 14.7 °F 11.0 °F 30.38 in NE 2.0 mph 7.0 mph 85% 0.00 in
01:45 14.6 °F 10.9 °F 30.37 in NE 2.0 mph 5.0 mph 85% 0.00 in
01:50 14.4 °F 10.7 °F 30.38 in NE 2.0 mph 5.0 mph 85% 0.00 in
01:55 14.3 °F 10.6 °F 30.38 in NE 3.0 mph 5.0 mph 85% 0.00 in
03:00 14.2 °F 10.5 °F 30.38 in NE 3.0 mph 5.0 mph 85% 0.00 in
03:05 14.1 °F 10.4 °F 30.38 in NE 2.0 mph 5.0 mph 85% 0.00 in
03:10 14.0 °F 10.1 °F 30.38 in NE 2.0 mph 5.0 mph 84% 0.00 in
03:15 13.9 °F 10.0 °F 30.38 in NE 2.0 mph 7.0 mph 84% 0.00 in
03:20 13.8 °F 9.9 °F 30.38 in ENE 4.0 mph 7.0 mph 84% 0.00 in
03:25 13.8 °F 9.9 °F 30.38 in NE 5.0 mph 7.0 mph 84% 0.00 in
03:30 13.8 °F 9.9 °F 30.38 in NE 3.0 mph 5.0 mph 84% 0.00 in
03:35 13.8 °F 9.9 °F 30.38 in NE 2.0 mph 5.0 mph 84% 0.00 in
03:40 13.8 °F 9.9 °F 30.38 in NE 2.0 mph 5.0 mph 84% 0.00 in
03:45 13.6 °F 9.7 °F 30.38 in ENE 2.0 mph 5.0 mph 84% 0.00 in
03:50 13.4 °F 9.5 °F 30.38 in ENE 3.0 mph 5.0 mph 84% 0.00 in
03:55 13.3 °F 9.1 °F 30.37 in NE 3.0 mph 5.0 mph 83% 0.00 in
04:00 13.3 °F 9.1 °F 30.38 in NE 1.0 mph 5.0 mph 83% 0.00 in
04:05 13.2 °F 9.0 °F 30.38 in NE 2.0 mph 5.0 mph 83% 0.00 in
04:10 13.2 °F 9.0 °F 30.38 in NE 2.0 mph 5.0 mph 83% 0.00 in
04:15 13.2 °F 9.0 °F 30.38 in NE 2.0 mph 5.0 mph 83% 0.00 in
04:20 13.1 °F 8.9 °F 30.38 in NE 3.0 mph 4.0 mph 83% 0.00 in
04:25 13.0 °F 8.8 °F 30.39 in NE 2.0 mph 5.0 mph 83% 0.00 in
04:30 13.0 °F 8.8 °F 30.39 in NNE 1.0 mph 5.0 mph 83% 0.00 in
04:35 13.0 °F 8.8 °F 30.39 in NE 3.0 mph 6.0 mph 83% 0.00 in
04:40 13.0 °F 8.8 °F 30.39 in NE 2.0 mph 6.0 mph 83% 0.00 in
04:45 13.0 °F 8.8 °F 30.39 in NNE 2.0 mph 5.0 mph 83% 0.00 in
04:50 13.0 °F 8.8 °F 30.39 in NE 2.0 mph 7.0 mph 83% 0.00 in
04:55 13.0 °F 8.8 °F 30.39 in NE 2.0 mph 7.0 mph 83% 0.00 in
05:00 12.9 °F 8.7 °F 30.39 in NNE 2.0 mph 4.0 mph 83% 0.00 in
05:05 12.8 °F 8.6 °F 30.39 in NNE 2.0 mph 6.0 mph 83% 0.00 in
05:10 12.8 °F 8.6 °F 30.39 in NE 3.0 mph 6.0 mph 83% 0.00 in
05:15 12.8 °F 8.6 °F 30.39 in NE 1.0 mph 5.0 mph 83% 0.00 in
05:20 12.9 °F 8.7 °F 30.39 in NE 2.0 mph 5.0 mph 83% 0.00 in
05:25 12.8 °F 8.3 °F 30.39 in NE 1.0 mph 6.0 mph 82% 0.00 in
05:30 12.8 °F 8.3 °F 30.39 in NE 2.0 mph 4.0 mph 82% 0.00 in
05:35 12.8 °F 8.3 °F 30.40 in NE 1.0 mph 4.0 mph 82% 0.00 in
05:40 12.8 °F 8.6 °F 30.40 in NE 3.0 mph 4.0 mph 83% 0.00 in
05:45 12.8 °F 8.6 °F 30.40 in NE 4.0 mph 5.0 mph 83% 0.00 in
05:50 12.8 °F 8.3 °F 30.40 in NE 1.0 mph 5.0 mph 82% 0.00 in
05:55 12.8 °F 8.3 °F 30.40 in NE 2.0 mph 5.0 mph 82% 0.00 in
06:00 12.7 °F 8.2 °F 30.40 in NE 2.0 mph 5.0 mph 82% 0.00 in
06:05 12.7 °F 8.2 °F 30.41 in NNE 1.0 mph 4.0 mph 82% 0.00 in
06:10 12.7 °F 8.2 °F 30.41 in NNE 1.0 mph 4.0 mph 82% 0.00 in
06:15 12.6 °F 8.1 °F 30.41 in NNE 2.0 mph 4.0 mph 82% 0.00 in
06:20 12.6 °F 8.1 °F 30.41 in ENE 5.0 mph 5.0 mph 82% 0.00 in
06:24 12.6 °F 8.1 °F 30.41 in NE 2.0 mph 7.0 mph 82% 0.00 in
06:30 12.5 °F 8.0 °F 30.41 in NE 1.0 mph 2.0 mph 82% 0.00 in
06:35 12.5 °F 8.0 °F 30.41 in NE 1.0 mph 4.0 mph 82% 0.00 in
06:40 12.5 °F 8.0 °F 30.41 in NNE 1.0 mph 6.0 mph 82% 0.00 in
06:45 12.5 °F 8.0 °F 30.41 in NE 2.0 mph 4.0 mph 82% 0.00 in
06:50 12.5 °F 8.0 °F 30.41 in NE 1.0 mph 4.0 mph 82% 0.00 in
06:54 12.4 °F 8.0 °F 30.41 in NE 2.0 mph 4.0 mph 82% 0.00 in
07:00 12.4 °F 8.0 °F 30.41 in NNE 2.0 mph 4.0 mph 82% 0.00 in
07:05 12.4 °F 7.7 °F 30.41 in NE 2.0 mph 4.0 mph 81% 0.00 in
07:10 12.4 °F 7.7 °F 30.42 in NNE 1.0 mph 4.0 mph 81% 0.00 in
07:15 12.4 °F 7.7 °F 30.41 in North 2.0 mph 3.0 mph 81% 0.00 in
07:20 12.3 °F 7.9 °F 30.41 in NE 2.0 mph 3.0 mph 82% 0.00 in
07:25 12.2 °F 7.8 °F 30.41 in NE 4.0 mph 7.0 mph 82% 0.00 in
07:30 12.2 °F 7.8 °F 30.41 in NE 3.0 mph 5.0 mph 82% 0.00 in
07:34 12.0 °F 7.6 °F 30.41 in NE 4.0 mph 7.0 mph 82% 0.00 in
07:40 11.9 °F 7.5 °F 30.42 in Calm   5.0 mph 82% 0.00 in
07:45 12.0 °F 7.6 °F 30.42 in NNE 2.0 mph 4.0 mph 82% 0.00 in
07:50 11.9 °F 7.5 °F 30.42 in NE 2.0 mph 6.0 mph 82% 0.00 in
07:55 11.9 °F 7.5 °F 30.42 in NNE 1.0 mph 5.0 mph 82% 0.00 in
08:00 11.9 °F 7.5 °F 30.42 in NE 2.0 mph 5.0 mph 82% 0.00 in
08:04 12.0 °F 7.6 °F 30.42 in NNE 2.0 mph 4.0 mph 82% 0.00 in
08:10 12.1 °F 7.7 °F 30.42 in North 1.0 mph 3.0 mph 82% 0.00 in
08:15 12.0 °F 7.3 °F 30.42 in North 2.0 mph 4.0 mph 81% 0.00 in
08:20 12.0 °F 7.0 °F 30.43 in NNW 2.0 mph 6.0 mph 80% 0.00 in
08:25 11.9 °F 6.6 °F 30.43 in North 4.0 mph 6.0 mph 79% 0.00 in
08:30 11.9 °F 6.4 °F 30.43 in North 2.0 mph 4.0 mph 78% 0.00 in
08:34 12.0 °F 6.5 °F 30.43 in North 2.0 mph 5.0 mph 78% 0.00 in
08:40 12.1 °F 6.3 °F 30.43 in North 2.0 mph 5.0 mph 77% 0.00 in
08:44 12.3 °F 6.5 °F 30.43 in North 1.0 mph 3.0 mph 77% 0.00 in
08:49 12.6 °F 6.5 °F 30.43 in NE 3.0 mph 3.0 mph 76% 0.00 in
08:54 12.8 °F 6.7 °F 30.44 in NNE 2.0 mph 4.0 mph 76% 0.00 in
08:59 12.8 °F 6.4 °F 30.44 in North 1.0 mph 5.0 mph 75% 0.00 in
09:04 12.7 °F 6.3 °F 30.45 in North 1.0 mph 5.0 mph 75% 0.00 in
09:09 12.8 °F 6.1 °F 30.45 in North 2.0 mph 5.0 mph 74% 0.00 in
09:14 12.8 °F 5.8 °F 30.45 in North 2.0 mph 5.0 mph 73% 0.00 in
09:20 12.9 °F 5.6 °F 30.45 in North 2.0 mph 6.0 mph 72% 0.00 in
09:25 13.2 °F 5.9 °F 30.45 in North 2.0 mph 4.0 mph 72% 0.00 in
09:30 13.4 °F 5.7 °F 30.45 in NNE 3.0 mph 5.0 mph 71% 0.00 in
09:35 13.5 °F 5.5 °F 30.45 in NNW 1.0 mph 5.0 mph 70% 0.00 in
09:40 13.5 °F 5.2 °F 30.45 in North 1.0 mph 3.0 mph 69% 0.00 in
09:44 13.6 °F 5.3 °F 30.45 in North 1.0 mph 3.0 mph 69% 0.00 in
09:50 14.2 °F 5.6 °F 30.45 in NNW 2.0 mph 4.0 mph 68% 0.00 in
09:55 14.6 °F 5.3 °F 30.45 in North 1.0 mph 4.0 mph 66% 0.00 in
09:59 15.0 °F 5.7 °F 30.46 in North 3.0 mph 4.0 mph 66% 0.00 in
10:04 15.0 °F 5.3 °F 30.46 in North 3.0 mph 3.0 mph 65% 0.00 in
10:09 14.7 °F 4.7 °F 30.46 in Calm   3.0 mph 64% 0.00 in
10:15 15.1 °F 5.4 °F 30.45 in NNE 4.0 mph 4.0 mph 65% 0.00 in
10:19 14.9 °F 4.9 °F 30.46 in North 2.0 mph 4.0 mph 64% 0.00 in
10:25 15.3 °F 5.3 °F 30.46 in NNW 2.0 mph 4.0 mph 64% 0.00 in
10:30 15.1 °F 4.8 °F 30.45 in NNW 2.0 mph 4.0 mph 63% 0.00 in
10:35 15.0 °F 4.7 °F 30.46 in NW 1.0 mph 4.0 mph 63% 0.00 in
10:40 15.7 °F 5.3 °F 30.46 in NNE 2.0 mph 3.0 mph 63% 0.01 in
10:45 16.0 °F 5.3 °F 30.46 in North 2.0 mph 4.0 mph 62% 0.01 in
10:50 16.3 °F 5.5 °F 30.46 in NE 2.0 mph 4.0 mph 62% 0.01 in
13:34 20.5 °F 7.7 °F 30.46 in WNW 4.0 mph 13.0 mph 57% 0.00 in
13:39 20.2 °F 6.2 °F 30.46 in WNW 5.0 mph 13.0 mph 54% 0.00 in
13:44 20.8 °F 7.6 °F 30.46 in WNW 5.0 mph 12.0 mph 56% 0.00 in
13:49 21.4 °F 7.7 °F 30.45 in WNW 6.0 mph 12.0 mph 55% 0.00 in
13:55 20.4 °F 6.4 °F 30.45 in NW 2.0 mph 11.0 mph 54% 0.00 in
14:00 20.7 °F 6.7 °F 30.45 in West 4.0 mph 11.0 mph 54% 0.00 in
14:05 20.4 °F 6.4 °F 30.45 in NW 9.0 mph 11.0 mph 54% 0.00 in
14:10 20.8 °F 6.7 °F 30.45 in WNW 9.0 mph 11.0 mph 54% 0.00 in
14:14 20.7 °F 6.7 °F 30.45 in WNW 5.0 mph 11.0 mph 54% 0.00 in
14:19 22.2 °F 8.5 °F 30.45 in WNW 5.0 mph 10.0 mph 55% 0.00 in
14:25 21.9 °F 8.2 °F 30.45 in WNW 4.0 mph 11.0 mph 55% 0.00 in
14:29 22.5 °F 8.7 °F 30.45 in West 3.0 mph 8.0 mph 55% 0.00 in
14:34 22.3 °F 7.3 °F 30.45 in WNW 6.0 mph 12.0 mph 52% 0.00 in
14:39 21.2 °F 6.3 °F 30.45 in North 5.0 mph 11.0 mph 52% 0.00 in
14:44 20.9 °F 6.8 °F 30.44 in WNW 3.0 mph 8.0 mph 54% 0.00 in
14:49 20.9 °F 7.6 °F 30.44 in WNW 5.0 mph 10.0 mph 56% 0.00 in
14:54 21.6 °F 7.5 °F 30.44 in West 5.0 mph 11.0 mph 54% 0.00 in
14:59 21.1 °F 8.6 °F 30.44 in West 5.0 mph 11.0 mph 58% 0.00 in
15:04 21.5 °F 9.7 °F 30.44 in WSW 5.0 mph 10.0 mph 60% 0.00 in
15:10 21.1 °F 9.7 °F 30.44 in West 7.0 mph 10.0 mph 61% 0.00 in
15:14 22.3 °F 11.2 °F 30.44 in SW 5.0 mph 10.0 mph 62% 0.00 in
15:20 21.3 °F 9.6 °F 30.43 in WSW 5.0 mph 11.0 mph 60% 0.00 in
15:24 21.9 °F 11.2 °F 30.44 in WSW 6.0 mph 12.0 mph 63% 0.00 in
15:29 21.7 °F 11.4 °F 30.44 in WSW 6.0 mph 12.0 mph 64% 0.00 in
15:35 21.6 °F 12.0 °F 30.44 in WSW 6.0 mph 11.0 mph 66% 0.00 in
15:39 21.8 °F 11.5 °F 30.44 in West 8.0 mph 14.0 mph 64% 0.00 in
15:44 20.8 °F 11.9 °F 30.43 in WSW 8.0 mph 14.0 mph 68% 0.00 in
15:50 20.7 °F 12.5 °F 30.44 in West 5.0 mph 10.0 mph 70% 0.00 in
15:54 20.7 °F 12.8 °F 30.44 in SW 8.0 mph 11.0 mph 71% 0.00 in
15:59 20.8 °F 13.2 °F 30.44 in WNW 7.0 mph 13.0 mph 72% 0.00 in
16:05 20.6 °F 12.7 °F 30.44 in WNW 4.0 mph 15.0 mph 71% 0.00 in
16:10 21.2 °F 13.3 °F 30.44 in WSW 8.0 mph 15.0 mph 71% 0.00 in
16:14 20.9 °F 13.3 °F 30.44 in WSW 2.0 mph 14.0 mph 72% 0.00 in
16:20 20.4 °F 12.5 °F 30.44 in West 8.0 mph 11.0 mph 71% 0.00 in
16:25 20.4 °F 12.5 °F 30.44 in WSW 4.0 mph 13.0 mph 71% 0.00 in
16:30 20.9 °F 12.6 °F 30.44 in WSW 6.0 mph 13.0 mph 70% 0.00 in
16:35 20.9 °F 13.0 °F 30.44 in WSW 6.0 mph 14.0 mph 71% 0.00 in
16:40 21.1 °F 13.2 °F 30.44 in WSW 7.0 mph 14.0 mph 71% 0.00 in
16:44 20.7 °F 12.8 °F 30.44 in WSW 6.0 mph 11.0 mph 71% 0.00 in
16:49 20.9 °F 13.3 °F 30.44 in WSW 5.0 mph 14.0 mph 72% 0.00 in
16:54 21.0 °F 13.1 °F 30.44 in WSW 11.0 mph 14.0 mph 71% 0.00 in
17:00 21.3 °F 13.0 °F 30.44 in West 7.0 mph 12.0 mph 70% 0.00 in
17:04 21.7 °F 14.1 °F 30.44 in West 4.0 mph 10.0 mph 72% 0.00 in
17:09 21.5 °F 13.5 °F 30.44 in West 2.0 mph 9.0 mph 71% 0.00 in
17:14 22.1 °F 14.4 °F 30.43 in WSW 7.0 mph 8.0 mph 72% 0.00 in
17:19 22.5 °F 14.5 °F 30.43 in SW 8.0 mph 10.0 mph 71% 0.00 in
17:24 22.1 °F 13.8 °F 30.43 in WSW 4.0 mph 9.0 mph 70% 0.00 in
17:30 22.3 °F 14.0 °F 30.44 in WNW 5.0 mph 6.0 mph 70% 0.00 in
17:34 21.8 °F 12.9 °F 30.44 in West 4.0 mph 14.0 mph 68% 0.00 in
17:39 21.7 °F 12.1 °F 30.44 in West 4.0 mph 14.0 mph 66% 0.00 in
17:45 21.9 °F 11.9 °F 30.44 in West 3.0 mph 9.0 mph 65% 0.00 in
17:49 21.9 °F 11.6 °F 30.44 in West 4.0 mph 10.0 mph 64% 0.00 in
17:55 22.1 °F 11.8 °F 30.44 in West 4.0 mph 10.0 mph 64% 0.00 in
18:00 22.3 °F 10.5 °F 30.44 in WNW 4.0 mph 8.0 mph 60% 0.00 in
18:04 22.2 °F 9.3 °F 30.44 in WNW 5.0 mph 9.0 mph 57% 0.00 in
18:09 22.4 °F 8.2 °F 30.44 in West 2.0 mph 10.0 mph 54% 0.00 in
18:14 22.2 °F 7.6 °F 30.44 in WNW 4.0 mph 11.0 mph 53% 0.00 in
18:19 22.1 °F 8.0 °F 30.45 in West 8.0 mph 11.0 mph 54% 0.00 in
18:24 22.0 °F 7.9 °F 30.45 in West 6.0 mph 11.0 mph 54% 0.00 in
18:29 21.9 °F 7.8 °F 30.45 in West 6.0 mph 10.0 mph 54% 0.00 in
18:34 21.7 °F 7.6 °F 30.45 in WNW 4.0 mph 10.0 mph 54% 0.00 in
18:40 21.6 °F 7.1 °F 30.45 in WNW 5.0 mph 11.0 mph 53% 0.00 in
18:44 21.6 °F 7.1 °F 30.45 in WNW 5.0 mph 12.0 mph 53% 0.00 in
18:49 21.4 °F 7.3 °F 30.45 in WNW 5.0 mph 12.0 mph 54% 0.00 in
18:54 21.3 °F 7.2 °F 30.46 in WNW 5.0 mph 12.0 mph 54% 0.00 in
18:59 21.2 °F 6.7 °F 30.46 in WNW 6.0 mph 11.0 mph 53% 0.00 in
19:04 21.1 °F 7.0 °F 30.47 in WNW 6.0 mph 9.0 mph 54% 0.00 in
19:09 20.9 °F 6.8 °F 30.47 in West 2.0 mph 9.0 mph 54% 0.00 in
19:14 20.7 °F 7.1 °F 30.47 in WNW 5.0 mph 11.0 mph 55% 0.00 in
19:19 20.7 °F 6.7 °F 30.47 in WNW 5.0 mph 11.0 mph 54% 0.00 in
19:24 20.6 °F 7.0 °F 30.47 in WNW 5.0 mph 11.0 mph 55% 0.00 in
19:29 20.5 °F 6.9 °F 30.47 in West 3.0 mph 7.0 mph 55% 0.00 in
19:34 20.3 °F 6.7 °F 30.47 in NW 3.0 mph 6.0 mph 55% 0.00 in
19:39 20.2 °F 6.6 °F 30.48 in West 6.0 mph 7.0 mph 55% 0.00 in
19:44 20.3 °F 6.7 °F 30.48 in West 5.0 mph 10.0 mph 55% 0.00 in
19:49 20.4 °F 6.8 °F 30.48 in WNW 5.0 mph 10.0 mph 55% 0.00 in
19:54 20.4 °F 6.8 °F 30.48 in WNW 4.0 mph 10.0 mph 55% 0.00 in
19:59 20.3 °F 6.7 °F 30.48 in West 6.0 mph 9.0 mph 55% 0.00 in
20:04 20.1 °F 6.9 °F 30.48 in NW 3.0 mph 6.0 mph 56% 0.00 in
20:09 19.9 °F 7.1 °F 30.48 in WNW 2.0 mph 6.0 mph 57% 0.00 in
20:14 19.7 °F 6.9 °F 30.48 in WNW 4.0 mph 4.0 mph 57% 0.00 in
20:19 19.7 °F 7.3 °F 30.48 in NNW 2.0 mph 7.0 mph 58% 0.00 in
20:24 19.6 °F 7.6 °F 30.48 in WNW 3.0 mph 7.0 mph 59% 0.00 in
20:29 19.6 °F 7.6 °F 30.48 in NW 3.0 mph 7.0 mph 59% 0.00 in
20:34 19.6 °F 7.6 °F 30.48 in NW 3.0 mph 7.0 mph 59% 0.00 in
20:39 19.6 °F 7.6 °F 30.48 in NW 4.0 mph 7.0 mph 59% 0.00 in
20:44 19.5 °F 7.5 °F 30.48 in WNW 2.0 mph 7.0 mph 59% 0.00 in
20:50 19.3 °F 7.3 °F 30.48 in NW 3.0 mph 4.0 mph 59% 0.00 in
20:54 18.9 °F 7.3 °F 30.49 in WNW 2.0 mph 5.0 mph 60% 0.00 in
20:59 18.8 °F 7.6 °F 30.49 in WNW 2.0 mph 5.0 mph 61% 0.00 in
21:04 18.5 °F 7.3 °F 30.49 in Calm   3.0 mph 61% 0.00 in
21:09 18.3 °F 7.1 °F 30.49 in Calm   3.0 mph 61% 0.00 in
21:14 18.0 °F 7.2 °F 30.49 in WNW 2.0 mph 2.0 mph 62% 0.00 in
21:19 17.9 °F 7.1 °F 30.48 in NW 2.0 mph 3.0 mph 62% 0.00 in
21:24 18.0 °F 7.2 °F 30.48 in WNW 1.0 mph 4.0 mph 62% 0.00 in
21:29 18.1 °F 6.9 °F 30.48 in NW 2.0 mph 5.0 mph 61% 0.00 in
21:34 18.0 °F 6.8 °F 30.48 in NW 1.0 mph 5.0 mph 61% 0.00 in
21:39 17.6 °F 6.4 °F 30.48 in WNW 1.0 mph 4.0 mph 61% 0.00 in
21:44 17.6 °F 6.4 °F 30.48 in NW 1.0 mph 5.0 mph 61% 0.00 in
21:49 17.7 °F 6.5 °F 30.48 in NW 1.0 mph 5.0 mph 61% 0.00 in
21:54 17.4 °F 6.6 °F 30.48 in Calm   4.0 mph 62% 0.00 in
21:59 17.5 °F 6.3 °F 30.48 in NW 1.0 mph 4.0 mph 61% 0.00 in
22:04 17.3 °F 6.5 °F 30.48 in WNW 1.0 mph 4.0 mph 62% 0.00 in
22:09 17.4 °F 6.2 °F 30.48 in WNW 2.0 mph 5.0 mph 61% 0.00 in
22:14 17.7 °F 6.5 °F 30.49 in WNW 1.0 mph 5.0 mph 61% 0.00 in
22:19 17.5 °F 6.3 °F 30.49 in NW 1.0 mph 4.0 mph 61% 0.00 in
22:24 17.3 °F 6.1 °F 30.49 in WNW 2.0 mph 3.0 mph 61% 0.00 in
22:29 17.2 °F 6.4 °F 30.49 in WNW 2.0 mph 3.0 mph 62% 0.00 in
22:34 17.3 °F 6.1 °F 30.49 in NW 2.0 mph 4.0 mph 61% 0.00 in
22:39 17.2 °F 6.0 °F 30.50 in NW 2.0 mph 4.0 mph 61% 0.00 in
22:44 16.9 °F 5.8 °F 30.50 in NW 1.0 mph 3.0 mph 61% 0.00 in
22:49 16.8 °F 6.0 °F 30.49 in NW 1.0 mph 3.0 mph 62% 0.00 in
22:54 16.6 °F 5.8 °F 30.49 in NW 1.0 mph 3.0 mph 62% 0.00 in
22:59 16.4 °F 6.0 °F 30.49 in Calm   4.0 mph 63% 0.00 in
23:04 16.5 °F 6.1 °F 30.49 in Calm   2.0 mph 63% 0.00 in
23:09 16.3 °F 6.2 °F 30.50 in WNW 1.0 mph 3.0 mph 64% 0.00 in
23:14 16.2 °F 6.1 °F 30.50 in NW 1.0 mph 3.0 mph 64% 0.00 in
23:19 15.8 °F 6.1 °F 30.50 in Calm   2.0 mph 65% 0.00 in
23:24 15.6 °F 6.3 °F 30.50 in Calm   1.0 mph 66% 0.00 in
23:29 15.1 °F 5.8 °F 30.49 in Calm     66% 0.00 in
23:34 14.8 °F 6.1 °F 30.49 in Calm     68% 0.00 in
23:39 14.7 °F 6.0 °F 30.49 in Calm     68% 0.00 in
23:44 14.4 °F 6.1 °F 30.49 in Calm     69% 0.00 in
23:49 14.1 °F 6.1 °F 30.49 in Calm     70% 0.00 in
23:54 14.0 °F 6.0 °F 30.49 in Calm   1.0 mph 70% 0.00 in
23:59 14.2 °F 6.5 °F 30.49 in Calm   1.0 mph 71% 0.00 in
Buffalo, New York, USA
Compliments of Weather Underground - 2.25 mb